sensor_id;sensor_type;location;lat;lon;timestamp;P1;durP1;ratioP1;P2;durP2;ratioP2
52894;SDS011;38759;53.396;6.722;2024-03-25T00:00:23;12.90;;;2.30;;
52894;SDS011;38759;53.396;6.722;2024-03-25T00:02:50;15.13;;;2.15;;
52894;SDS011;38759;53.396;6.722;2024-03-25T00:05:16;25.23;;;2.83;;
52894;SDS011;38759;53.396;6.722;2024-03-25T00:07:47;18.13;;;2.55;;
52894;SDS011;38759;53.396;6.722;2024-03-25T00:10:13;18.20;;;2.53;;
52894;SDS011;38759;53.396;6.722;2024-03-25T00:12:39;21.15;;;2.30;;
52894;SDS011;38759;53.396;6.722;2024-03-25T00:15:05;16.00;;;2.53;;
52894;SDS011;38759;53.396;6.722;2024-03-25T00:17:31;16.33;;;2.25;;
52894;SDS011;38759;53.396;6.722;2024-03-25T00:19:56;16.10;;;2.50;;
52894;SDS011;38759;53.396;6.722;2024-03-25T00:22:23;25.23;;;2.35;;
52894;SDS011;38759;53.396;6.722;2024-03-25T00:24:50;26.00;;;3.20;;
52894;SDS011;38759;53.396;6.722;2024-03-25T00:27:16;29.80;;;2.80;;
52894;SDS011;38759;53.396;6.722;2024-03-25T00:29:43;18.05;;;2.70;;
52894;SDS011;38759;53.396;6.722;2024-03-25T00:32:09;11.38;;;2.08;;
52894;SDS011;38759;53.396;6.722;2024-03-25T00:34:35;23.65;;;2.60;;
52894;SDS011;38759;53.396;6.722;2024-03-25T00:37:02;17.63;;;2.33;;
52894;SDS011;38759;53.396;6.722;2024-03-25T00:39:29;16.50;;;2.33;;
52894;SDS011;38759;53.396;6.722;2024-03-25T00:41:57;21.80;;;3.35;;
52894;SDS011;38759;53.396;6.722;2024-03-25T00:44:23;24.30;;;3.47;;
52894;SDS011;38759;53.396;6.722;2024-03-25T00:46:49;19.13;;;2.28;;
52894;SDS011;38759;53.396;6.722;2024-03-25T00:49:15;24.17;;;2.75;;
52894;SDS011;38759;53.396;6.722;2024-03-25T00:51:41;18.15;;;2.65;;
52894;SDS011;38759;53.396;6.722;2024-03-25T00:54:06;14.25;;;2.50;;
52894;SDS011;38759;53.396;6.722;2024-03-25T00:56:32;20.05;;;2.25;;
52894;SDS011;38759;53.396;6.722;2024-03-25T00:58:58;22.80;;;2.25;;
52894;SDS011;38759;53.396;6.722;2024-03-25T01:01:28;16.42;;;2.20;;
52894;SDS011;38759;53.396;6.722;2024-03-25T01:03:54;17.10;;;2.00;;
52894;SDS011;38759;53.396;6.722;2024-03-25T01:06:20;18.38;;;3.22;;
52894;SDS011;38759;53.396;6.722;2024-03-25T01:08:46;25.23;;;3.58;;
52894;SDS011;38759;53.396;6.722;2024-03-25T01:11:11;11.57;;;1.80;;
52894;SDS011;38759;53.396;6.722;2024-03-25T01:13:37;13.88;;;1.98;;
52894;SDS011;38759;53.396;6.722;2024-03-25T01:16:03;13.80;;;1.73;;
52894;SDS011;38759;53.396;6.722;2024-03-25T01:18:29;12.57;;;1.75;;
52894;SDS011;38759;53.396;6.722;2024-03-25T01:20:54;11.93;;;1.40;;
52894;SDS011;38759;53.396;6.722;2024-03-25T01:23:20;11.05;;;1.63;;
52894;SDS011;38759;53.396;6.722;2024-03-25T01:25:46;9.40;;;1.45;;
52894;SDS011;38759;53.396;6.722;2024-03-25T01:28:11;7.65;;;1.88;;
52894;SDS011;38759;53.396;6.722;2024-03-25T01:30:37;10.70;;;1.75;;
52894;SDS011;38759;53.396;6.722;2024-03-25T01:33:04;12.32;;;2.25;;
52894;SDS011;38759;53.396;6.722;2024-03-25T01:35:30;14.05;;;1.75;;
52894;SDS011;38759;53.396;6.722;2024-03-25T01:37:56;11.63;;;1.80;;
52894;SDS011;38759;53.396;6.722;2024-03-25T01:40:22;20.73;;;2.42;;
52894;SDS011;38759;53.396;6.722;2024-03-25T01:45:23;15.52;;;2.22;;
52894;SDS011;38759;53.396;6.722;2024-03-25T01:47:49;14.95;;;2.05;;
52894;SDS011;38759;53.396;6.722;2024-03-25T01:50:16;19.90;;;2.20;;
52894;SDS011;38759;53.396;6.722;2024-03-25T01:52:42;13.45;;;2.10;;
52894;SDS011;38759;53.396;6.722;2024-03-25T01:55:08;19.67;;;2.75;;
52894;SDS011;38759;53.396;6.722;2024-03-25T01:57:41;13.48;;;2.25;;
52894;SDS011;38759;53.396;6.722;2024-03-25T02:00:09;12.73;;;2.15;;
52894;SDS011;38759;53.396;6.722;2024-03-25T02:02:35;20.88;;;2.42;;
52894;SDS011;38759;53.396;6.722;2024-03-25T02:05:06;16.85;;;2.72;;
52894;SDS011;38759;53.396;6.722;2024-03-25T02:07:35;18.95;;;2.10;;
52894;SDS011;38759;53.396;6.722;2024-03-25T02:10:06;18.83;;;2.65;;
52894;SDS011;38759;53.396;6.722;2024-03-25T02:12:40;21.33;;;2.40;;
52894;SDS011;38759;53.396;6.722;2024-03-25T02:15:07;17.25;;;2.53;;
52894;SDS011;38759;53.396;6.722;2024-03-25T02:17:34;22.63;;;2.45;;
52894;SDS011;38759;53.396;6.722;2024-03-25T02:20:00;11.43;;;1.70;;
52894;SDS011;38759;53.396;6.722;2024-03-25T02:22:28;15.00;;;3.40;;
52894;SDS011;38759;53.396;6.722;2024-03-25T02:24:54;17.33;;;2.03;;
52894;SDS011;38759;53.396;6.722;2024-03-25T02:27:22;12.30;;;1.98;;
52894;SDS011;38759;53.396;6.722;2024-03-25T02:29:53;17.15;;;1.73;;
52894;SDS011;38759;53.396;6.722;2024-03-25T02:32:19;13.27;;;1.33;;
52894;SDS011;38759;53.396;6.722;2024-03-25T02:34:46;21.75;;;2.30;;
52894;SDS011;38759;53.396;6.722;2024-03-25T02:37:16;12.02;;;1.52;;
52894;SDS011;38759;53.396;6.722;2024-03-25T02:39:42;18.65;;;1.90;;
52894;SDS011;38759;53.396;6.722;2024-03-25T02:42:08;6.40;;;1.67;;
52894;SDS011;38759;53.396;6.722;2024-03-25T02:44:34;12.00;;;1.85;;
52894;SDS011;38759;53.396;6.722;2024-03-25T02:47:01;7.50;;;1.52;;
52894;SDS011;38759;53.396;6.722;2024-03-25T02:49:27;7.60;;;1.40;;
52894;SDS011;38759;53.396;6.722;2024-03-25T02:51:53;21.23;;;2.22;;
52894;SDS011;38759;53.396;6.722;2024-03-25T02:54:19;7.15;;;1.50;;
52894;SDS011;38759;53.396;6.722;2024-03-25T02:56:44;3.42;;;1.08;;
52894;SDS011;38759;53.396;6.722;2024-03-25T02:59:10;16.73;;;2.10;;
52894;SDS011;38759;53.396;6.722;2024-03-25T03:01:36;14.50;;;1.85;;
52894;SDS011;38759;53.396;6.722;2024-03-25T03:04:01;18.20;;;2.00;;
52894;SDS011;38759;53.396;6.722;2024-03-25T03:06:27;12.70;;;1.77;;
52894;SDS011;38759;53.396;6.722;2024-03-25T03:08:53;14.95;;;2.63;;
52894;SDS011;38759;53.396;6.722;2024-03-25T03:11:18;12.57;;;1.95;;
52894;SDS011;38759;53.396;6.722;2024-03-25T03:13:44;16.48;;;1.80;;
52894;SDS011;38759;53.396;6.722;2024-03-25T03:16:11;7.75;;;1.38;;
52894;SDS011;38759;53.396;6.722;2024-03-25T03:18:37;15.57;;;2.50;;
52894;SDS011;38759;53.396;6.722;2024-03-25T03:21:02;16.13;;;2.50;;
52894;SDS011;38759;53.396;6.722;2024-03-25T03:23:28;10.98;;;2.15;;
52894;SDS011;38759;53.396;6.722;2024-03-25T03:25:54;15.73;;;2.08;;
52894;SDS011;38759;53.396;6.722;2024-03-25T03:28:20;19.77;;;1.75;;
52894;SDS011;38759;53.396;6.722;2024-03-25T03:30:46;17.52;;;1.80;;
52894;SDS011;38759;53.396;6.722;2024-03-25T03:33:12;26.02;;;2.40;;
52894;SDS011;38759;53.396;6.722;2024-03-25T03:35:38;17.85;;;1.92;;
52894;SDS011;38759;53.396;6.722;2024-03-25T03:38:03;20.52;;;1.90;;
52894;SDS011;38759;53.396;6.722;2024-03-25T03:40:32;19.65;;;1.98;;
52894;SDS011;38759;53.396;6.722;2024-03-25T03:42:58;9.93;;;1.70;;
52894;SDS011;38759;53.396;6.722;2024-03-25T03:45:24;15.60;;;2.15;;
52894;SDS011;38759;53.396;6.722;2024-03-25T03:47:50;11.60;;;1.75;;
52894;SDS011;38759;53.396;6.722;2024-03-25T03:50:16;11.38;;;2.03;;
52894;SDS011;38759;53.396;6.722;2024-03-25T03:52:41;14.80;;;1.70;;
52894;SDS011;38759;53.396;6.722;2024-03-25T03:55:07;13.93;;;1.77;;
52894;SDS011;38759;53.396;6.722;2024-03-25T03:57:33;18.50;;;1.80;;
52894;SDS011;38759;53.396;6.722;2024-03-25T03:59:59;19.73;;;2.45;;
52894;SDS011;38759;53.396;6.722;2024-03-25T04:02:25;9.38;;;1.50;;
52894;SDS011;38759;53.396;6.722;2024-03-25T04:04:53;9.45;;;1.67;;
52894;SDS011;38759;53.396;6.722;2024-03-25T04:07:19;14.10;;;2.45;;
52894;SDS011;38759;53.396;6.722;2024-03-25T04:09:45;15.88;;;2.05;;
52894;SDS011;38759;53.396;6.722;2024-03-25T04:12:11;13.77;;;2.10;;
52894;SDS011;38759;53.396;6.722;2024-03-25T04:14:36;11.15;;;2.13;;
52894;SDS011;38759;53.396;6.722;2024-03-25T04:17:03;14.18;;;2.20;;
52894;SDS011;38759;53.396;6.722;2024-03-25T04:19:29;17.02;;;2.30;;
52894;SDS011;38759;53.396;6.722;2024-03-25T04:21:55;10.88;;;1.88;;
52894;SDS011;38759;53.396;6.722;2024-03-25T04:24:21;13.65;;;2.20;;
52894;SDS011;38759;53.396;6.722;2024-03-25T04:26:47;13.00;;;1.67;;
52894;SDS011;38759;53.396;6.722;2024-03-25T04:29:14;16.75;;;1.90;;
52894;SDS011;38759;53.396;6.722;2024-03-25T04:31:41;14.48;;;1.92;;
52894;SDS011;38759;53.396;6.722;2024-03-25T04:34:06;16.10;;;1.90;;
52894;SDS011;38759;53.396;6.722;2024-03-25T04:36:32;14.07;;;1.73;;
52894;SDS011;38759;53.396;6.722;2024-03-25T04:38:58;23.23;;;2.03;;
52894;SDS011;38759;53.396;6.722;2024-03-25T04:41:23;13.45;;;1.77;;
52894;SDS011;38759;53.396;6.722;2024-03-25T04:43:49;20.98;;;2.50;;
52894;SDS011;38759;53.396;6.722;2024-03-25T04:46:14;15.63;;;1.60;;
52894;SDS011;38759;53.396;6.722;2024-03-25T04:48:40;9.60;;;1.58;;
52894;SDS011;38759;53.396;6.722;2024-03-25T04:51:06;7.63;;;1.77;;
52894;SDS011;38759;53.396;6.722;2024-03-25T04:53:34;14.63;;;2.22;;
52894;SDS011;38759;53.396;6.722;2024-03-25T04:55:59;8.23;;;1.70;;
52894;SDS011;38759;53.396;6.722;2024-03-25T04:58:25;15.10;;;1.67;;
52894;SDS011;38759;53.396;6.722;2024-03-25T05:00:51;8.55;;;1.83;;
52894;SDS011;38759;53.396;6.722;2024-03-25T05:03:17;15.18;;;1.55;;
52894;SDS011;38759;53.396;6.722;2024-03-25T05:05:43;12.57;;;1.73;;
52894;SDS011;38759;53.396;6.722;2024-03-25T05:08:09;11.70;;;1.70;;
52894;SDS011;38759;53.396;6.722;2024-03-25T05:10:35;16.45;;;2.10;;
52894;SDS011;38759;53.396;6.722;2024-03-25T05:13:00;17.75;;;1.85;;
52894;SDS011;38759;53.396;6.722;2024-03-25T05:15:26;8.68;;;1.55;;
52894;SDS011;38759;53.396;6.722;2024-03-25T05:17:51;11.00;;;1.40;;
52894;SDS011;38759;53.396;6.722;2024-03-25T05:20:17;8.65;;;1.48;;
52894;SDS011;38759;53.396;6.722;2024-03-25T05:22:43;9.32;;;1.67;;
52894;SDS011;38759;53.396;6.722;2024-03-25T05:25:08;19.52;;;1.73;;
52894;SDS011;38759;53.396;6.722;2024-03-25T05:27:34;14.00;;;1.70;;
52894;SDS011;38759;53.396;6.722;2024-03-25T05:30:00;13.00;;;2.30;;
52894;SDS011;38759;53.396;6.722;2024-03-25T05:32:25;10.20;;;1.70;;
52894;SDS011;38759;53.396;6.722;2024-03-25T05:34:51;11.88;;;1.65;;
52894;SDS011;38759;53.396;6.722;2024-03-25T05:37:17;12.05;;;1.45;;
52894;SDS011;38759;53.396;6.722;2024-03-25T05:39:43;15.40;;;1.77;;
52894;SDS011;38759;53.396;6.722;2024-03-25T05:42:09;13.00;;;1.55;;
52894;SDS011;38759;53.396;6.722;2024-03-25T05:44:35;8.40;;;1.40;;
52894;SDS011;38759;53.396;6.722;2024-03-25T05:47:00;16.63;;;1.80;;
52894;SDS011;38759;53.396;6.722;2024-03-25T05:49:26;10.30;;;1.70;;
52894;SDS011;38759;53.396;6.722;2024-03-25T05:51:52;18.77;;;2.05;;
52894;SDS011;38759;53.396;6.722;2024-03-25T05:54:17;15.07;;;1.88;;
52894;SDS011;38759;53.396;6.722;2024-03-25T05:56:43;11.60;;;1.77;;
52894;SDS011;38759;53.396;6.722;2024-03-25T05:59:09;13.65;;;1.83;;
52894;SDS011;38759;53.396;6.722;2024-03-25T06:01:35;15.35;;;2.03;;
52894;SDS011;38759;53.396;6.722;2024-03-25T06:04:02;19.88;;;1.35;;
52894;SDS011;38759;53.396;6.722;2024-03-25T06:06:29;12.43;;;2.00;;
52894;SDS011;38759;53.396;6.722;2024-03-25T06:08:55;7.68;;;1.55;;
52894;SDS011;38759;53.396;6.722;2024-03-25T06:11:21;16.73;;;2.00;;
52894;SDS011;38759;53.396;6.722;2024-03-25T06:13:47;12.70;;;2.25;;
52894;SDS011;38759;53.396;6.722;2024-03-25T06:16:13;14.35;;;1.80;;
52894;SDS011;38759;53.396;6.722;2024-03-25T06:18:39;5.88;;;1.58;;
52894;SDS011;38759;53.396;6.722;2024-03-25T06:21:05;15.48;;;2.20;;
52894;SDS011;38759;53.396;6.722;2024-03-25T06:23:31;14.88;;;2.03;;
52894;SDS011;38759;53.396;6.722;2024-03-25T06:25:57;7.97;;;1.85;;
52894;SDS011;38759;53.396;6.722;2024-03-25T06:28:23;13.98;;;1.95;;
52894;SDS011;38759;53.396;6.722;2024-03-25T06:30:49;16.30;;;2.30;;
52894;SDS011;38759;53.396;6.722;2024-03-25T06:33:34;14.43;;;2.90;;
52894;SDS011;38759;53.396;6.722;2024-03-25T06:36:19;14.95;;;1.80;;
52894;SDS011;38759;53.396;6.722;2024-03-25T06:38:45;19.40;;;1.90;;
52894;SDS011;38759;53.396;6.722;2024-03-25T06:41:11;14.75;;;2.17;;
52894;SDS011;38759;53.396;6.722;2024-03-25T06:43:37;11.73;;;1.77;;
52894;SDS011;38759;53.396;6.722;2024-03-25T06:46:03;11.48;;;2.35;;
52894;SDS011;38759;53.396;6.722;2024-03-25T06:48:29;23.55;;;2.75;;
52894;SDS011;38759;53.396;6.722;2024-03-25T06:50:58;14.35;;;2.20;;
52894;SDS011;38759;53.396;6.722;2024-03-25T06:53:25;6.97;;;1.02;;
52894;SDS011;38759;53.396;6.722;2024-03-25T06:55:51;18.13;;;2.15;;
52894;SDS011;38759;53.396;6.722;2024-03-25T06:58:18;11.20;;;2.00;;
52894;SDS011;38759;53.396;6.722;2024-03-25T07:00:44;11.98;;;1.45;;
52894;SDS011;38759;53.396;6.722;2024-03-25T07:03:10;23.58;;;1.70;;
52894;SDS011;38759;53.396;6.722;2024-03-25T07:05:36;8.00;;;1.17;;
52894;SDS011;38759;53.396;6.722;2024-03-25T07:08:02;14.23;;;1.70;;
52894;SDS011;38759;53.396;6.722;2024-03-25T07:10:27;12.25;;;1.85;;
52894;SDS011;38759;53.396;6.722;2024-03-25T07:12:53;12.77;;;2.05;;
52894;SDS011;38759;53.396;6.722;2024-03-25T07:15:19;10.80;;;2.15;;
52894;SDS011;38759;53.396;6.722;2024-03-25T07:17:44;16.10;;;2.47;;
52894;SDS011;38759;53.396;6.722;2024-03-25T07:20:10;17.75;;;2.22;;
52894;SDS011;38759;53.396;6.722;2024-03-25T07:22:36;10.20;;;1.80;;
52894;SDS011;38759;53.396;6.722;2024-03-25T07:25:03;9.63;;;1.60;;
52894;SDS011;38759;53.396;6.722;2024-03-25T07:27:29;13.05;;;1.85;;
52894;SDS011;38759;53.396;6.722;2024-03-25T07:29:55;15.10;;;1.77;;
52894;SDS011;38759;53.396;6.722;2024-03-25T07:32:20;13.15;;;1.73;;
52894;SDS011;38759;53.396;6.722;2024-03-25T07:34:47;9.48;;;2.03;;
52894;SDS011;38759;53.396;6.722;2024-03-25T07:37:13;15.60;;;2.03;;
52894;SDS011;38759;53.396;6.722;2024-03-25T07:39:38;11.95;;;2.00;;
52894;SDS011;38759;53.396;6.722;2024-03-25T07:42:04;15.93;;;1.77;;
52894;SDS011;38759;53.396;6.722;2024-03-25T07:44:31;13.95;;;1.83;;
52894;SDS011;38759;53.396;6.722;2024-03-25T07:46:57;9.80;;;1.60;;
52894;SDS011;38759;53.396;6.722;2024-03-25T07:49:22;9.43;;;1.50;;
52894;SDS011;38759;53.396;6.722;2024-03-25T07:51:48;10.13;;;1.30;;
52894;SDS011;38759;53.396;6.722;2024-03-25T07:54:14;18.08;;;3.00;;
52894;SDS011;38759;53.396;6.722;2024-03-25T07:56:41;12.02;;;1.42;;
52894;SDS011;38759;53.396;6.722;2024-03-25T07:59:07;10.82;;;1.67;;
52894;SDS011;38759;53.396;6.722;2024-03-25T08:01:33;12.68;;;2.10;;
52894;SDS011;38759;53.396;6.722;2024-03-25T08:03:58;14.20;;;1.73;;
52894;SDS011;38759;53.396;6.722;2024-03-25T08:06:25;14.30;;;2.05;;
52894;SDS011;38759;53.396;6.722;2024-03-25T08:08:51;11.07;;;1.60;;
52894;SDS011;38759;53.396;6.722;2024-03-25T08:11:16;12.85;;;1.40;;
52894;SDS011;38759;53.396;6.722;2024-03-25T08:13:42;10.00;;;1.80;;
52894;SDS011;38759;53.396;6.722;2024-03-25T08:16:08;9.60;;;1.30;;
52894;SDS011;38759;53.396;6.722;2024-03-25T08:18:33;17.27;;;2.55;;
52894;SDS011;38759;53.396;6.722;2024-03-25T08:20:59;11.82;;;1.25;;
52894;SDS011;38759;53.396;6.722;2024-03-25T08:23:24;8.30;;;1.48;;
52894;SDS011;38759;53.396;6.722;2024-03-25T08:25:50;12.57;;;2.00;;
52894;SDS011;38759;53.396;6.722;2024-03-25T08:28:16;18.92;;;2.45;;
52894;SDS011;38759;53.396;6.722;2024-03-25T08:30:42;12.85;;;1.70;;
52894;SDS011;38759;53.396;6.722;2024-03-25T08:33:08;12.70;;;1.55;;
52894;SDS011;38759;53.396;6.722;2024-03-25T08:35:33;8.00;;;1.20;;
52894;SDS011;38759;53.396;6.722;2024-03-25T08:37:59;11.13;;;1.30;;
52894;SDS011;38759;53.396;6.722;2024-03-25T08:40:25;8.82;;;1.40;;
52894;SDS011;38759;53.396;6.722;2024-03-25T08:42:50;14.80;;;1.25;;
52894;SDS011;38759;53.396;6.722;2024-03-25T08:45:16;10.57;;;1.48;;
52894;SDS011;38759;53.396;6.722;2024-03-25T08:47:42;9.02;;;1.40;;
52894;SDS011;38759;53.396;6.722;2024-03-25T08:50:08;11.48;;;1.85;;
52894;SDS011;38759;53.396;6.722;2024-03-25T08:52:33;7.72;;;1.25;;
52894;SDS011;38759;53.396;6.722;2024-03-25T08:54:59;8.52;;;1.38;;
52894;SDS011;38759;53.396;6.722;2024-03-25T08:57:25;7.50;;;1.20;;
52894;SDS011;38759;53.396;6.722;2024-03-25T08:59:50;9.02;;;1.30;;
52894;SDS011;38759;53.396;6.722;2024-03-25T09:02:16;14.35;;;1.75;;
52894;SDS011;38759;53.396;6.722;2024-03-25T09:04:42;5.97;;;1.45;;
52894;SDS011;38759;53.396;6.722;2024-03-25T09:07:09;10.02;;;1.50;;
52894;SDS011;38759;53.396;6.722;2024-03-25T09:09:35;10.25;;;1.30;;
52894;SDS011;38759;53.396;6.722;2024-03-25T09:12:18;8.93;;;1.17;;
52894;SDS011;38759;53.396;6.722;2024-03-25T09:14:44;14.00;;;1.33;;
52894;SDS011;38759;53.396;6.722;2024-03-25T09:17:11;7.60;;;1.23;;
52894;SDS011;38759;53.396;6.722;2024-03-25T09:19:36;8.90;;;0.93;;
52894;SDS011;38759;53.396;6.722;2024-03-25T09:22:02;6.78;;;1.10;;
52894;SDS011;38759;53.396;6.722;2024-03-25T09:24:27;4.93;;;0.90;;
52894;SDS011;38759;53.396;6.722;2024-03-25T09:26:53;5.00;;;0.95;;
52894;SDS011;38759;53.396;6.722;2024-03-25T09:29:19;3.78;;;0.98;;
52894;SDS011;38759;53.396;6.722;2024-03-25T09:31:44;6.43;;;1.25;;
52894;SDS011;38759;53.396;6.722;2024-03-25T09:34:10;11.93;;;1.35;;
52894;SDS011;38759;53.396;6.722;2024-03-25T09:36:36;5.90;;;1.05;;
52894;SDS011;38759;53.396;6.722;2024-03-25T09:39:01;6.07;;;1.05;;
52894;SDS011;38759;53.396;6.722;2024-03-25T09:41:29;5.45;;;0.98;;
52894;SDS011;38759;53.396;6.722;2024-03-25T09:43:59;11.15;;;1.17;;
52894;SDS011;38759;53.396;6.722;2024-03-25T09:46:25;6.97;;;1.50;;
52894;SDS011;38759;53.396;6.722;2024-03-25T09:48:52;8.05;;;1.70;;
52894;SDS011;38759;53.396;6.722;2024-03-25T09:51:19;8.02;;;1.08;;
52894;SDS011;38759;53.396;6.722;2024-03-25T09:53:45;5.32;;;1.05;;
52894;SDS011;38759;53.396;6.722;2024-03-25T09:56:11;6.50;;;1.02;;
52894;SDS011;38759;53.396;6.722;2024-03-25T09:58:38;7.80;;;1.48;;
52894;SDS011;38759;53.396;6.722;2024-03-25T10:01:04;7.95;;;1.08;;
52894;SDS011;38759;53.396;6.722;2024-03-25T10:03:30;4.07;;;0.75;;
52894;SDS011;38759;53.396;6.722;2024-03-25T10:05:56;15.70;;;1.35;;
52894;SDS011;38759;53.396;6.722;2024-03-25T10:08:22;5.28;;;1.13;;
52894;SDS011;38759;53.396;6.722;2024-03-25T10:10:48;4.55;;;1.10;;
52894;SDS011;38759;53.396;6.722;2024-03-25T10:13:16;3.58;;;0.73;;
52894;SDS011;38759;53.396;6.722;2024-03-25T10:15:41;4.15;;;0.77;;
52894;SDS011;38759;53.396;6.722;2024-03-25T10:18:07;4.75;;;0.98;;
52894;SDS011;38759;53.396;6.722;2024-03-25T10:20:36;7.88;;;1.05;;
52894;SDS011;38759;53.396;6.722;2024-03-25T10:23:01;9.23;;;1.23;;
52894;SDS011;38759;53.396;6.722;2024-03-25T10:25:29;6.85;;;1.48;;
52894;SDS011;38759;53.396;6.722;2024-03-25T10:27:57;5.10;;;1.20;;
52894;SDS011;38759;53.396;6.722;2024-03-25T10:30:24;3.40;;;0.75;;
52894;SDS011;38759;53.396;6.722;2024-03-25T10:33:00;5.63;;;1.30;;
52894;SDS011;38759;53.396;6.722;2024-03-25T10:35:30;6.38;;;1.02;;
52894;SDS011;38759;53.396;6.722;2024-03-25T10:38:04;8.13;;;1.23;;
52894;SDS011;38759;53.396;6.722;2024-03-25T10:40:31;9.02;;;1.25;;
52894;SDS011;38759;53.396;6.722;2024-03-25T10:43:04;7.57;;;1.20;;
52894;SDS011;38759;53.396;6.722;2024-03-25T10:45:32;5.40;;;1.00;;
52894;SDS011;38759;53.396;6.722;2024-03-25T10:48:19;7.22;;;1.20;;
52894;SDS011;38759;53.396;6.722;2024-03-25T10:50:55;3.83;;;1.17;;
52894;SDS011;38759;53.396;6.722;2024-03-25T10:53:22;12.05;;;1.20;;
52894;SDS011;38759;53.396;6.722;2024-03-25T10:55:55;7.97;;;1.30;;
52894;SDS011;38759;53.396;6.722;2024-03-25T10:58:21;8.73;;;1.38;;
52894;SDS011;38759;53.396;6.722;2024-03-25T11:00:48;8.98;;;1.45;;
52894;SDS011;38759;53.396;6.722;2024-03-25T11:03:15;10.95;;;1.25;;
52894;SDS011;38759;53.396;6.722;2024-03-25T11:05:42;5.78;;;1.20;;
52894;SDS011;38759;53.396;6.722;2024-03-25T11:08:12;12.55;;;1.95;;
52894;SDS011;38759;53.396;6.722;2024-03-25T11:10:44;8.10;;;1.20;;
52894;SDS011;38759;53.396;6.722;2024-03-25T11:13:14;7.63;;;1.15;;
52894;SDS011;38759;53.396;6.722;2024-03-25T11:15:43;8.55;;;1.42;;
52894;SDS011;38759;53.396;6.722;2024-03-25T11:18:11;4.35;;;1.08;;
52894;SDS011;38759;53.396;6.722;2024-03-25T11:20:40;5.75;;;1.45;;
52894;SDS011;38759;53.396;6.722;2024-03-25T11:23:13;5.85;;;1.02;;
52894;SDS011;38759;53.396;6.722;2024-03-25T11:25:39;10.02;;;1.30;;
52894;SDS011;38759;53.396;6.722;2024-03-25T11:28:06;6.65;;;0.85;;
52894;SDS011;38759;53.396;6.722;2024-03-25T11:30:33;6.00;;;0.93;;
52894;SDS011;38759;53.396;6.722;2024-03-25T11:33:00;10.90;;;1.00;;
52894;SDS011;38759;53.396;6.722;2024-03-25T11:35:27;7.93;;;1.10;;
52894;SDS011;38759;53.396;6.722;2024-03-25T11:37:53;6.03;;;1.20;;
52894;SDS011;38759;53.396;6.722;2024-03-25T11:40:19;11.18;;;1.10;;
52894;SDS011;38759;53.396;6.722;2024-03-25T11:42:45;6.43;;;1.35;;
52894;SDS011;38759;53.396;6.722;2024-03-25T11:45:18;11.45;;;1.48;;
52894;SDS011;38759;53.396;6.722;2024-03-25T11:47:48;9.63;;;1.85;;
52894;SDS011;38759;53.396;6.722;2024-03-25T11:50:18;7.22;;;1.50;;
52894;SDS011;38759;53.396;6.722;2024-03-25T11:52:45;9.02;;;1.30;;
52894;SDS011;38759;53.396;6.722;2024-03-25T11:55:15;8.35;;;1.63;;
52894;SDS011;38759;53.396;6.722;2024-03-25T11:57:44;8.20;;;1.48;;
52894;SDS011;38759;53.396;6.722;2024-03-25T12:00:10;7.18;;;1.25;;
52894;SDS011;38759;53.396;6.722;2024-03-25T12:02:45;6.53;;;1.63;;
52894;SDS011;38759;53.396;6.722;2024-03-25T12:05:11;9.55;;;1.02;;
52894;SDS011;38759;53.396;6.722;2024-03-25T12:07:37;5.45;;;1.10;;
52894;SDS011;38759;53.396;6.722;2024-03-25T12:10:03;6.47;;;1.15;;
52894;SDS011;38759;53.396;6.722;2024-03-25T12:12:48;13.02;;;1.70;;
52894;SDS011;38759;53.396;6.722;2024-03-25T12:15:15;7.75;;;1.38;;
52894;SDS011;38759;53.396;6.722;2024-03-25T12:17:41;6.85;;;1.35;;
52894;SDS011;38759;53.396;6.722;2024-03-25T12:20:08;7.78;;;1.33;;
52894;SDS011;38759;53.396;6.722;2024-03-25T12:22:34;5.72;;;1.30;;
52894;SDS011;38759;53.396;6.722;2024-03-25T12:25:02;9.05;;;1.70;;
52894;SDS011;38759;53.396;6.722;2024-03-25T12:27:31;7.53;;;1.67;;
52894;SDS011;38759;53.396;6.722;2024-03-25T12:30:01;8.38;;;1.10;;
52894;SDS011;38759;53.396;6.722;2024-03-25T12:32:35;5.35;;;1.55;;
52894;SDS011;38759;53.396;6.722;2024-03-25T12:37:35;13.23;;;1.83;;
52894;SDS011;38759;53.396;6.722;2024-03-25T12:40:02;7.15;;;1.48;;
52894;SDS011;38759;53.396;6.722;2024-03-25T12:42:30;11.77;;;1.35;;
52894;SDS011;38759;53.396;6.722;2024-03-25T12:44:56;4.30;;;1.20;;
52894;SDS011;38759;53.396;6.722;2024-03-25T12:47:22;7.20;;;1.08;;
52894;SDS011;38759;53.396;6.722;2024-03-25T12:49:47;6.68;;;1.25;;
52894;SDS011;38759;53.396;6.722;2024-03-25T12:52:13;9.95;;;2.20;;
52894;SDS011;38759;53.396;6.722;2024-03-25T12:54:39;8.35;;;1.20;;
52894;SDS011;38759;53.396;6.722;2024-03-25T12:57:06;10.90;;;1.33;;
52894;SDS011;38759;53.396;6.722;2024-03-25T12:59:32;9.73;;;1.33;;
52894;SDS011;38759;53.396;6.722;2024-03-25T13:01:58;10.35;;;1.45;;
52894;SDS011;38759;53.396;6.722;2024-03-25T13:04:24;8.02;;;1.50;;
52894;SDS011;38759;53.396;6.722;2024-03-25T13:06:50;11.32;;;1.63;;
52894;SDS011;38759;53.396;6.722;2024-03-25T13:09:16;7.95;;;1.30;;
52894;SDS011;38759;53.396;6.722;2024-03-25T13:11:42;7.43;;;1.30;;
52894;SDS011;38759;53.396;6.722;2024-03-25T13:14:10;12.85;;;1.77;;
52894;SDS011;38759;53.396;6.722;2024-03-25T13:16:37;10.07;;;1.60;;
52894;SDS011;38759;53.396;6.722;2024-03-25T13:19:03;8.98;;;1.30;;
52894;SDS011;38759;53.396;6.722;2024-03-25T13:21:29;7.90;;;1.38;;
52894;SDS011;38759;53.396;6.722;2024-03-25T13:23:55;9.52;;;1.48;;
52894;SDS011;38759;53.396;6.722;2024-03-25T13:26:20;8.13;;;1.55;;
52894;SDS011;38759;53.396;6.722;2024-03-25T13:28:46;7.30;;;1.23;;
52894;SDS011;38759;53.396;6.722;2024-03-25T13:31:12;8.15;;;1.30;;
52894;SDS011;38759;53.396;6.722;2024-03-25T13:33:38;10.20;;;2.03;;
52894;SDS011;38759;53.396;6.722;2024-03-25T13:36:06;10.38;;;1.40;;
52894;SDS011;38759;53.396;6.722;2024-03-25T13:38:32;10.60;;;1.20;;
52894;SDS011;38759;53.396;6.722;2024-03-25T13:41:01;8.88;;;1.15;;
52894;SDS011;38759;53.396;6.722;2024-03-25T13:43:28;7.28;;;1.10;;
52894;SDS011;38759;53.396;6.722;2024-03-25T13:45:53;7.13;;;1.10;;
52894;SDS011;38759;53.396;6.722;2024-03-25T13:48:19;13.65;;;1.95;;
52894;SDS011;38759;53.396;6.722;2024-03-25T13:50:45;6.53;;;1.50;;
52894;SDS011;38759;53.396;6.722;2024-03-25T13:53:10;8.43;;;1.70;;
52894;SDS011;38759;53.396;6.722;2024-03-25T13:55:36;7.80;;;1.50;;
52894;SDS011;38759;53.396;6.722;2024-03-25T13:58:02;7.95;;;1.88;;
52894;SDS011;38759;53.396;6.722;2024-03-25T14:00:30;8.48;;;1.70;;
52894;SDS011;38759;53.396;6.722;2024-03-25T14:02:56;7.50;;;1.25;;
52894;SDS011;38759;53.396;6.722;2024-03-25T14:05:22;8.60;;;1.25;;
52894;SDS011;38759;53.396;6.722;2024-03-25T14:07:48;5.38;;;1.05;;
52894;SDS011;38759;53.396;6.722;2024-03-25T14:10:14;4.38;;;1.45;;
52894;SDS011;38759;53.396;6.722;2024-03-25T14:12:40;9.07;;;1.10;;
52894;SDS011;38759;53.396;6.722;2024-03-25T14:15:06;7.68;;;1.35;;
52894;SDS011;38759;53.396;6.722;2024-03-25T14:17:32;10.30;;;1.40;;
52894;SDS011;38759;53.396;6.722;2024-03-25T14:19:58;5.00;;;1.40;;
52894;SDS011;38759;53.396;6.722;2024-03-25T14:22:24;10.05;;;1.80;;
52894;SDS011;38759;53.396;6.722;2024-03-25T14:24:49;7.75;;;1.65;;
52894;SDS011;38759;53.396;6.722;2024-03-25T14:27:21;9.73;;;1.70;;
52894;SDS011;38759;53.396;6.722;2024-03-25T14:29:47;8.95;;;1.20;;
52894;SDS011;38759;53.396;6.722;2024-03-25T14:32:13;9.85;;;1.70;;
52894;SDS011;38759;53.396;6.722;2024-03-25T14:34:38;10.30;;;1.92;;
52894;SDS011;38759;53.396;6.722;2024-03-25T14:37:04;11.70;;;1.98;;
52894;SDS011;38759;53.396;6.722;2024-03-25T14:39:30;9.32;;;1.35;;
52894;SDS011;38759;53.396;6.722;2024-03-25T14:41:56;9.77;;;1.75;;